Hasle, Denmark
Current Conditions -  °F | °C
As of 10:50 PM on Monday 20 Oct 2014 (Local Time) from EKRN Reporting Station
Broken Clouds Broken Clouds  
Wind Chill: 55°   Ceiling: 16000
Heat Index: 55°   Visibility: 6mi
Dew Point: 46°   Wind: 17mph
Humidity: 72%   Direction: 290°WNW
Pressure: 29.74"   Gusts: NA
Location:  55.18°N, 14.71°E
Report Text: EKRN 202050Z AUTO 29015KT 9999NDV FEW027/// BKN160///13/08 Q1007
Loading
Personal Weather Stations






























Interactive Weather Map
Tropical Storm Tracking
New forecast layout! Learn more

10-Day Weather Forecast

Advertisements
Track Severe Weather on mobile